< Typhoon 200813 2008 Season Typhoon 200815 >
Typhoon 200814 (HAGUPIT)
General InformationTrack Information on Google MapsDetailed Wind InformationAccess Analytics MapList of All Images || NewsDisaster Info.WeblogTrackbackTyphoon FrontTyphoon ImaginationResourceGoogle EarthGE AnimationAtom FeedGeoJSON
Detalied Best Track (Time Zone = UTC)
Year Month Day Hour Lat. Long. Pressure (hPa) Wind (kt) Class Image Chart
2008 9 17 12 16.1 141.2 1008 0 2 Image Chart
2008 9 17 18 15.9 140.1 1008 0 2 Image Chart
2008 9 18 00 15.6 139.1 1008 0 2 Image Chart
2008 9 18 06 15.4 138.3 1008 0 2 Image Chart
2008 9 18 12 15.1 137.6 1008 0 2 Image Chart
2008 9 18 18 14.8 136.4 1006 0 2 Image Chart
2008 9 19 00 14.4 135.2 1006 0 2 Image Chart
2008 9 19 06 14.1 134.0 1004 0 2 Image Chart
2008 9 19 12 14.0 132.9 1002 35 3 Image Chart
2008 9 19 18 13.7 131.9 994 45 3 Image Chart
2008 9 20 00 13.5 131.1 990 50 4 Image Chart
2008 9 20 06 14.1 129.7 985 50 4 Image Chart
2008 9 20 12 14.4 128.9 985 50 4 Image Chart
2008 9 20 18 15.5 128.0 985 50 4 Image Chart
2008 9 21 00 16.1 127.2 980 55 4 Image Chart
2008 9 21 06 17.1 126.5 975 55 4 Image Chart
2008 9 21 12 18.1 125.7 970 65 5 Image Chart
2008 9 21 18 18.7 124.7 960 70 5 Image Chart
2008 9 22 00 18.9 123.4 955 75 5 Image Chart
2008 9 22 06 19.4 122.1 950 80 5 Image Chart
2008 9 22 12 19.5 120.9 950 80 5 Image Chart
2008 9 22 18 20.0 119.1 950 80 5 Image Chart
2008 9 23 00 20.2 117.3 945 85 5 Image Chart
2008 9 23 06 20.4 115.6 945 85 5 Image Chart
2008 9 23 12 20.6 114.2 945 85 5 Image Chart
2008 9 23 18 21.1 112.5 935 90 5 Image Chart
2008 9 24 00 21.5 110.7 955 75 5 Image Chart
2008 9 24 06 21.8 109.1 975 60 4 Image Chart
2008 9 24 12 21.9 107.9 985 45 3 Image Chart
2008 9 24 18 22.4 107.0 992 35 3 Image Chart
2008 9 25 00 22.3 106.2 996 0 2 Image Chart
2008 9 25 06 22.4 105.4 998 0 2 Image Chart
2008 9 25 12 22.4 104.4 998 0 2 Image Chart
2008 9 25 18 22.3 103.2 1000 0 2 Image Chart
Japan Meteorological Agency Best Track Data | Correction Date : 2008-10-27
< Typhoon 200813 2008 Season Typhoon 200815 >

Help